createdAt,value
2023-03-27T00:01:27.852Z,69.97
2023-03-27T00:03:55.905Z,69.65
2023-03-27T00:06:25.326Z,69.48
2023-03-27T00:08:52.902Z,69.51
2023-03-27T00:11:22.019Z,69.65
2023-03-27T00:13:51.403Z,69.38
2023-03-27T00:16:23.185Z,69.60
2023-03-27T00:18:50.194Z,69.26
2023-03-27T00:21:17.277Z,69.43
2023-03-27T00:23:44.276Z,69.75
2023-03-27T00:26:12.279Z,69.61
2023-03-27T00:28:39.351Z,69.47
2023-03-27T00:31:10.845Z,69.51
2023-03-27T00:33:38.006Z,69.47
2023-03-27T00:36:05.351Z,69.95
2023-03-27T00:38:33.949Z,69.67
2023-03-27T00:41:01.117Z,69.79
2023-03-27T00:43:34.180Z,69.37
2023-03-27T00:46:27.946Z,69.71
2023-03-27T00:48:55.807Z,69.45
2023-03-27T00:51:24.287Z,69.35
2023-03-27T00:53:51.518Z,69.31
2023-03-27T00:56:18.629Z,69.46
2023-03-27T00:58:58.627Z,69.76
2023-03-27T01:01:27.814Z,69.71
2023-03-27T01:03:56.296Z,69.95
2023-03-27T01:06:23.315Z,69.97
2023-03-27T01:08:51.103Z,69.49
2023-03-27T01:11:48.804Z,69.93
2023-03-27T01:14:37.994Z,69.62
2023-03-27T01:17:33.182Z,69.88
2023-03-27T01:20:20.390Z,69.86
2023-03-27T01:23:58.632Z,69.60
2023-03-27T01:26:42.234Z,70.24
2023-03-27T01:29:26.491Z,70.19
2023-03-27T01:32:33.368Z,70.00
2023-03-27T01:35:40.703Z,70.16
2023-03-27T01:38:42.364Z,70.07
2023-03-27T01:41:19.897Z,70.49
2023-03-27T01:43:56.583Z,70.19
2023-03-27T01:46:31.684Z,70.81
2023-03-27T01:49:05.754Z,70.28
2023-03-27T01:51:37.765Z,70.67
2023-03-27T01:54:12.217Z,70.55
2023-03-27T01:56:46.223Z,70.70
2023-03-27T01:59:16.675Z,71.11
2023-03-27T02:01:48.601Z,70.63
2023-03-27T02:04:19.949Z,70.77
2023-03-27T02:06:52.916Z,71.24
2023-03-27T02:09:26.949Z,71.31
2023-03-27T02:11:59.212Z,71.21
2023-03-27T02:14:31.165Z,71.10
2023-03-27T02:17:02.399Z,71.25
2023-03-27T02:19:33.640Z,71.55
2023-03-27T02:22:01.042Z,71.45
2023-03-27T02:24:28.942Z,71.67
2023-03-27T02:27:02.050Z,71.69
2023-03-27T02:29:54.137Z,71.53
2023-03-27T02:32:53.890Z,71.82
2023-03-27T02:35:45.266Z,72.09
2023-03-27T02:38:19.345Z,72.00
2023-03-27T02:41:16.326Z,71.97
2023-03-27T02:44:25.154Z,72.00
2023-03-27T02:47:25.014Z,72.62
2023-03-27T02:49:56.909Z,72.42
2023-03-27T02:52:28.464Z,72.61
2023-03-27T02:55:16.600Z,72.79
2023-03-27T02:57:52.203Z,72.73
2023-03-27T03:00:34.478Z,73.27
2023-03-27T03:03:18.038Z,72.87
2023-03-27T03:05:55.291Z,73.21
2023-03-27T03:08:22.396Z,73.47
2023-03-27T03:10:49.849Z,73.22
2023-03-27T03:13:18.135Z,73.62
2023-03-27T03:15:50.642Z,73.35
2023-03-27T03:18:17.624Z,73.80
2023-03-27T03:20:46.131Z,74.05
2023-03-27T03:23:13.060Z,73.72
2023-03-27T03:25:39.889Z,73.70
2023-03-27T03:28:08.311Z,74.16
2023-03-27T03:30:39.043Z,74.18
2023-03-27T03:33:11.000Z,74.32
2023-03-27T03:35:38.907Z,74.79
2023-03-27T03:38:12.791Z,74.56
2023-03-27T03:40:45.842Z,74.36
2023-03-27T03:43:13.057Z,74.63
2023-03-27T03:45:39.948Z,74.66
2023-03-27T03:48:07.165Z,74.99
2023-03-27T03:50:33.999Z,75.01
2023-03-27T03:53:00.921Z,75.02
2023-03-27T03:55:27.804Z,75.15
2023-03-27T03:57:55.680Z,75.44
2023-03-27T04:00:25.859Z,75.38
2023-03-27T04:02:56.925Z,75.27
2023-03-27T04:05:24.472Z,75.55
2023-03-27T04:07:53.757Z,75.90
2023-03-27T04:10:41.647Z,75.49
2023-03-27T04:13:22.071Z,75.98
2023-03-27T04:16:02.022Z,76.03
2023-03-27T04:18:39.367Z,76.15
2023-03-27T04:21:16.096Z,76.14
2023-03-27T04:23:45.256Z,76.27
2023-03-27T04:26:16.227Z,76.00
2023-03-27T04:29:04.151Z,76.00
2023-03-27T04:31:51.523Z,76.27
2023-03-27T04:34:38.502Z,76.25
2023-03-27T04:37:09.706Z,76.23
2023-03-27T04:39:43.034Z,76.50
2023-03-27T04:42:10.687Z,76.86
2023-03-27T04:44:38.605Z,76.81
2023-03-27T04:47:08.783Z,77.03
2023-03-27T04:49:43.809Z,76.75
2023-03-27T04:52:19.215Z,76.90
2023-03-27T04:54:46.782Z,77.08
2023-03-27T04:57:15.821Z,76.72
2023-03-27T04:59:42.992Z,77.21
2023-03-27T05:02:31.253Z,77.26
2023-03-27T05:05:09.110Z,76.89
2023-03-27T05:07:37.685Z,77.09
2023-03-27T05:10:06.959Z,76.96
2023-03-27T05:12:34.858Z,77.33
2023-03-27T05:15:06.258Z,77.40
2023-03-27T05:17:41.300Z,77.00
2023-03-27T05:20:12.421Z,77.44
2023-03-27T05:22:40.092Z,77.02
2023-03-27T05:25:17.487Z,77.28
2023-03-27T05:27:49.094Z,76.96
2023-03-27T05:30:18.641Z,77.17
2023-03-27T05:32:49.090Z,77.33
2023-03-27T05:35:24.405Z,77.61
2023-03-27T05:37:54.786Z,77.46
2023-03-27T05:40:27.721Z,77.16
2023-03-27T05:42:56.347Z,77.52
2023-03-27T05:45:27.548Z,77.43
2023-03-27T05:47:59.950Z,77.24
2023-03-27T05:50:30.076Z,77.47
2023-03-27T05:53:01.229Z,77.31
2023-03-27T05:55:34.535Z,77.43
2023-03-27T05:58:01.869Z,77.24
2023-03-27T06:00:32.047Z,77.19
2023-03-27T06:03:01.127Z,77.28
2023-03-27T06:05:48.943Z,77.46
2023-03-27T06:08:17.049Z,77.49
2023-03-27T06:10:45.789Z,77.42
2023-03-27T06:13:21.741Z,77.35
2023-03-27T06:15:58.432Z,77.00
2023-03-27T06:18:45.506Z,77.38
2023-03-27T06:21:15.200Z,77.19
2023-03-27T06:23:42.706Z,77.30
2023-03-27T06:26:12.214Z,77.04
2023-03-27T06:28:39.396Z,77.38
2023-03-27T06:31:06.963Z,77.36
2023-03-27T06:33:40.734Z,77.21
2023-03-27T06:36:18.193Z,77.39
2023-03-27T06:38:47.861Z,77.23
2023-03-27T06:41:14.880Z,76.85
2023-03-27T06:44:01.728Z,77.15
2023-03-27T06:46:44.618Z,77.37
2023-03-27T06:49:32.228Z,77.19
2023-03-27T06:52:05.960Z,77.09
2023-03-27T06:54:32.837Z,77.02
2023-03-27T06:57:01.726Z,77.17
2023-03-27T06:59:37.156Z,77.04
2023-03-27T07:02:04.386Z,76.65
2023-03-27T07:05:03.770Z,76.99
2023-03-27T07:07:41.475Z,76.68
2023-03-27T07:10:10.665Z,76.81
2023-03-27T07:12:38.292Z,76.79
2023-03-27T07:15:07.986Z,76.99
2023-03-27T07:17:48.024Z,76.88
2023-03-27T07:20:18.558Z,77.22
2023-03-27T07:22:46.109Z,76.88
2023-03-27T07:25:27.101Z,77.18
2023-03-27T07:27:59.730Z,77.08
2023-03-27T07:30:27.020Z,77.07
2023-03-27T07:32:54.591Z,77.23
2023-03-27T07:35:22.015Z,77.19
2023-03-27T07:38:09.841Z,76.82
2023-03-27T07:40:57.680Z,77.15
2023-03-27T07:43:44.441Z,76.60
2023-03-27T07:46:11.502Z,77.06
2023-03-27T07:48:39.212Z,76.94
2023-03-27T07:51:13.879Z,76.82
2023-03-27T07:53:43.698Z,76.99
2023-03-27T07:56:26.717Z,76.89
2023-03-27T07:59:13.739Z,76.75
2023-03-27T08:01:42.407Z,76.50
2023-03-27T08:04:09.409Z,76.65
2023-03-27T08:06:39.308Z,76.50
2023-03-27T08:09:13.336Z,76.71
2023-03-27T08:11:41.466Z,76.88
2023-03-27T08:14:09.946Z,76.84
2023-03-27T08:16:38.135Z,76.52
2023-03-27T08:19:06.358Z,76.25
2023-03-27T08:21:39.843Z,76.73
2023-03-27T08:24:07.464Z,76.91
2023-03-27T08:26:41.924Z,76.59
2023-03-27T08:29:12.256Z,76.35
2023-03-27T08:31:40.198Z,76.40
2023-03-27T08:34:07.314Z,76.08
2023-03-27T08:36:45.019Z,76.56
2023-03-27T08:39:12.975Z,76.25
2023-03-27T08:41:55.193Z,76.13
2023-03-27T08:44:30.074Z,75.80
2023-03-27T08:47:22.855Z,76.26
2023-03-27T08:49:58.705Z,75.96
2023-03-27T08:52:32.434Z,75.59
2023-03-27T08:55:10.791Z,75.86
2023-03-27T08:57:44.045Z,75.46
2023-03-27T09:00:25.673Z,75.41
2023-03-27T09:03:33.290Z,75.09
2023-03-27T09:06:11.663Z,75.31
2023-03-27T09:09:03.501Z,75.04
2023-03-27T09:11:40.748Z,74.65
2023-03-27T09:14:37.684Z,74.62
2023-03-27T09:17:14.943Z,74.84
2023-03-27T09:19:57.177Z,74.24
2023-03-27T09:22:37.567Z,74.10
2023-03-27T09:25:32.776Z,74.04
2023-03-27T09:28:21.666Z,74.09
2023-03-27T09:30:55.537Z,73.84
2023-03-27T09:33:27.925Z,73.69
2023-03-27T09:35:56.164Z,73.56
2023-03-27T09:38:28.383Z,73.20
2023-03-27T09:41:03.127Z,73.24
2023-03-27T09:43:54.667Z,73.13
2023-03-27T09:46:23.889Z,72.83
2023-03-27T09:49:00.630Z,72.54
2023-03-27T09:51:51.789Z,72.42
2023-03-27T09:54:51.262Z,72.01
2023-03-27T09:57:18.624Z,71.82
2023-03-27T09:59:59.285Z,71.26
2023-03-27T10:02:29.270Z,71.44
2023-03-27T10:05:12.255Z,71.34
2023-03-27T10:07:41.605Z,70.87
2023-03-27T10:10:32.623Z,70.58
2023-03-27T10:13:20.982Z,70.20
2023-03-27T10:16:02.236Z,70.57
2023-03-27T10:18:42.479Z,70.00
2023-03-27T10:21:34.438Z,70.10
2023-03-27T10:24:07.119Z,69.93
2023-03-27T10:26:54.371Z,69.82
2023-03-27T10:29:35.060Z,69.74
2023-03-27T10:32:05.300Z,69.22
2023-03-27T10:34:57.471Z,69.29
2023-03-27T10:37:50.141Z,69.09
2023-03-27T10:40:39.092Z,69.27
2023-03-27T10:43:16.772Z,69.16
2023-03-27T10:46:06.455Z,69.10
2023-03-27T10:49:17.342Z,69.04
2023-03-27T10:52:07.617Z,68.68
2023-03-27T10:55:30.587Z,68.63
2023-03-27T10:58:00.635Z,68.36
2023-03-27T11:00:38.158Z,68.29
2023-03-27T11:03:18.133Z,67.94
2023-03-27T11:05:48.841Z,68.35
2023-03-27T11:08:54.222Z,68.14
2023-03-27T11:11:31.023Z,67.60
2023-03-27T11:14:03.878Z,67.88
2023-03-27T11:16:39.388Z,67.85
2023-03-27T11:19:45.932Z,67.33
2023-03-27T11:23:12.552Z,67.92
2023-03-27T11:26:01.738Z,67.29
2023-03-27T11:28:41.320Z,67.31
2023-03-27T11:31:49.505Z,67.38
2023-03-27T11:34:57.843Z,66.86
2023-03-27T11:37:48.863Z,67.01
2023-03-27T11:40:26.957Z,67.19
2023-03-27T11:43:01.491Z,66.57
2023-03-27T11:45:41.228Z,66.36
2023-03-27T11:48:48.070Z,66.13
2023-03-27T11:51:32.025Z,65.86
2023-03-27T11:54:09.738Z,65.82
2023-03-27T11:56:58.132Z,65.96
2023-03-27T12:00:04.828Z,65.36
2023-03-27T12:02:59.727Z,65.65
2023-03-27T12:06:07.513Z,65.47
2023-03-27T12:09:07.373Z,64.89
2023-03-27T12:12:13.642Z,65.13
2023-03-27T12:15:15.684Z,64.78
2023-03-27T12:17:51.629Z,64.57
2023-03-27T12:20:51.916Z,64.41
2023-03-27T12:23:43.191Z,64.41
2023-03-27T12:27:12.906Z,64.33
2023-03-27T12:30:07.766Z,64.21
2023-03-27T12:32:55.376Z,63.82
2023-03-27T12:35:24.827Z,63.83
2023-03-27T12:38:02.304Z,63.63
2023-03-27T12:40:39.273Z,63.54
2023-03-27T12:43:31.748Z,62.97
2023-03-27T12:46:37.543Z,62.85
2023-03-27T12:49:47.973Z,62.91
2023-03-27T12:52:27.042Z,63.25
2023-03-27T12:55:33.823Z,63.09
2023-03-27T12:58:32.448Z,62.63
2023-03-27T13:01:52.904Z,62.99
2023-03-27T13:05:08.681Z,62.81
2023-03-27T13:08:11.094Z,62.56
2023-03-27T13:11:14.682Z,61.89
2023-03-27T13:14:21.578Z,61.72
2023-03-27T13:16:58.830Z,62.04
2023-03-27T13:19:58.567Z,61.86
2023-03-27T13:22:56.919Z,61.57
2023-03-27T13:25:33.078Z,61.43
2023-03-27T13:28:34.496Z,60.84
2023-03-27T13:31:12.393Z,61.38
2023-03-27T13:34:32.883Z,60.92
2023-03-27T13:37:43.146Z,61.05
2023-03-27T13:40:31.179Z,60.92
2023-03-27T13:43:25.352Z,60.79
2023-03-27T13:46:01.480Z,60.49
2023-03-27T13:49:19.435Z,60.21
2023-03-27T13:52:26.387Z,60.41
2023-03-27T13:55:14.189Z,59.92
2023-03-27T13:58:38.645Z,59.66
2023-03-27T14:01:45.603Z,59.79
2023-03-27T14:04:43.766Z,59.59
2023-03-27T14:07:46.616Z,59.53
2023-03-27T14:10:56.733Z,59.39
2023-03-27T14:13:45.636Z,59.33
2023-03-27T14:16:40.942Z,59.22
2023-03-27T14:19:49.131Z,59.33
2023-03-27T14:22:23.724Z,58.98
2023-03-27T14:25:02.779Z,58.83
2023-03-27T14:27:36.704Z,58.72
2023-03-27T14:30:07.559Z,58.88
2023-03-27T14:32:37.269Z,58.88
2023-03-27T14:35:06.213Z,58.74
2023-03-27T14:37:42.016Z,58.72
2023-03-27T14:40:35.285Z,58.74
2023-03-27T14:43:07.247Z,58.67
2023-03-27T14:45:39.418Z,58.50
2023-03-27T14:48:34.525Z,58.79
2023-03-27T14:51:05.554Z,58.59
2023-03-27T14:53:44.650Z,58.42
2023-03-27T14:56:37.467Z,58.74
2023-03-27T14:59:27.296Z,58.55
2023-03-27T15:01:59.550Z,58.40
2023-03-27T15:04:30.234Z,58.53
2023-03-27T15:07:19.816Z,58.43
2023-03-27T15:10:26.393Z,58.91
2023-03-27T15:13:13.256Z,59.03
2023-03-27T15:15:47.540Z,59.01
2023-03-27T15:18:30.971Z,58.93
2023-03-27T15:21:04.277Z,59.05
2023-03-27T15:23:52.487Z,58.70
2023-03-27T15:29:48.596Z,58.81
2023-03-27T15:32:18.961Z,58.93
2023-03-27T15:34:51.278Z,58.79
2023-03-27T15:37:23.390Z,58.27
2023-03-27T15:40:13.615Z,58.31
2023-03-27T15:43:00.995Z,58.36
2023-03-27T15:45:39.988Z,57.88
2023-03-27T15:48:18.995Z,57.93
2023-03-27T15:51:07.575Z,57.74
2023-03-27T15:53:46.659Z,57.71
2023-03-27T15:56:21.973Z,57.47
2023-03-27T15:58:53.729Z,57.51
2023-03-27T16:01:26.209Z,57.46
2023-03-27T16:03:54.355Z,57.65
2023-03-27T16:06:36.719Z,57.75
2023-03-27T16:09:10.157Z,57.25
2023-03-27T16:11:43.758Z,57.19
2023-03-27T16:14:21.664Z,57.01
2023-03-27T16:16:49.851Z,57.30
2023-03-27T16:19:16.704Z,57.35
2023-03-27T16:22:03.457Z,57.09
2023-03-27T16:24:30.623Z,56.96
2023-03-27T16:26:57.558Z,57.07
2023-03-27T16:29:24.919Z,57.02
2023-03-27T16:31:51.794Z,56.78
2023-03-27T16:34:23.219Z,56.90
2023-03-27T16:36:50.477Z,56.87
2023-03-27T16:39:17.379Z,56.92
2023-03-27T16:41:44.373Z,56.79
2023-03-27T16:44:11.225Z,56.88
2023-03-27T16:46:38.114Z,56.88
2023-03-27T16:49:05.562Z,56.96
2023-03-27T16:51:44.382Z,57.10
2023-03-27T16:54:11.927Z,56.90
2023-03-27T16:56:39.458Z,56.96
2023-03-27T16:59:06.597Z,56.96
2023-03-27T17:01:33.446Z,56.93
2023-03-27T17:04:01.359Z,56.96
2023-03-27T17:06:42.079Z,56.85
2023-03-27T17:09:14.229Z,56.90
2023-03-27T17:11:43.750Z,56.84
2023-03-27T17:14:12.965Z,56.65
2023-03-27T17:16:42.228Z,56.90
2023-03-27T17:19:11.047Z,57.09
2023-03-27T17:21:39.681Z,56.90
2023-03-27T17:24:11.435Z,56.91
2023-03-27T17:26:39.680Z,56.98
2023-03-27T17:29:08.477Z,56.89
2023-03-27T17:31:35.493Z,56.95
2023-03-27T17:34:02.474Z,56.86
2023-03-27T17:36:40.228Z,56.92
2023-03-27T17:39:10.388Z,56.70
2023-03-27T17:41:37.138Z,56.63
2023-03-27T17:44:05.634Z,56.94
2023-03-27T17:46:34.769Z,56.98
2023-03-27T17:49:02.042Z,57.19
2023-03-27T17:51:28.986Z,56.97
2023-03-27T17:53:55.910Z,57.09
2023-03-27T17:56:23.037Z,57.03
2023-03-27T17:58:50.331Z,57.09
2023-03-27T18:01:19.745Z,57.33
2023-03-27T18:03:46.965Z,57.25
2023-03-27T18:06:17.405Z,57.26
2023-03-27T18:08:45.208Z,57.28
2023-03-27T18:11:13.712Z,57.40
2023-03-27T18:13:41.367Z,57.43
2023-03-27T18:16:10.908Z,57.09
2023-03-27T18:18:39.100Z,57.75
2023-03-27T18:21:08.008Z,57.66
2023-03-27T18:23:35.190Z,57.50
2023-03-27T18:26:06.526Z,57.46
2023-03-27T18:28:34.211Z,57.34
2023-03-27T18:31:03.493Z,57.86
2023-03-27T18:33:30.760Z,57.90
2023-03-27T18:35:58.003Z,57.62
2023-03-27T18:38:25.838Z,57.49
2023-03-27T18:40:55.662Z,57.96
2023-03-27T18:43:23.463Z,58.05
2023-03-27T18:45:58.910Z,57.77
2023-03-27T18:48:26.783Z,58.08
2023-03-27T18:51:04.643Z,57.92
2023-03-27T18:53:31.784Z,57.95
2023-03-27T18:55:59.302Z,58.23
2023-03-27T18:58:27.859Z,58.76
2023-03-27T19:00:57.609Z,58.06
2023-03-27T19:03:35.275Z,58.70
2023-03-27T19:06:06.705Z,58.70
2023-03-27T19:08:38.138Z,58.73
2023-03-27T19:11:06.193Z,59.07
2023-03-27T19:13:54.539Z,58.80
2023-03-27T19:16:33.523Z,58.98
2023-03-27T19:19:27.895Z,58.91
2023-03-27T19:22:16.189Z,59.68
2023-03-27T19:24:49.390Z,59.00
2023-03-27T19:27:23.460Z,59.15
2023-03-27T19:29:55.459Z,59.40
2023-03-27T19:32:24.578Z,59.46
2023-03-27T19:34:51.801Z,59.79
2023-03-27T19:37:21.951Z,59.81
2023-03-27T19:39:52.494Z,59.37
2023-03-27T19:42:21.301Z,59.83
2023-03-27T19:44:51.035Z,60.23
2023-03-27T19:47:18.554Z,60.07
2023-03-27T19:49:46.495Z,60.12
2023-03-27T19:52:31.086Z,59.69
2023-03-27T19:55:02.139Z,59.81
2023-03-27T19:57:31.577Z,60.30
2023-03-27T19:59:58.824Z,59.91
2023-03-27T20:02:29.196Z,60.60
2023-03-27T20:05:00.659Z,60.19
2023-03-27T20:07:30.058Z,60.21
2023-03-27T20:09:56.926Z,61.04
2023-03-27T20:12:24.976Z,60.93
2023-03-27T20:15:02.978Z,60.64
2023-03-27T20:17:37.292Z,60.59
2023-03-27T20:20:06.262Z,61.19
2023-03-27T20:22:36.598Z,61.05
2023-03-27T20:25:10.303Z,61.32
2023-03-27T20:27:38.795Z,61.46
2023-03-27T20:30:37.559Z,61.08
2023-03-27T20:33:05.559Z,61.19
2023-03-27T20:35:33.715Z,61.63
2023-03-27T20:38:04.621Z,61.66
2023-03-27T20:40:52.858Z,62.09
2023-03-27T20:43:27.058Z,61.48
2023-03-27T20:45:55.081Z,61.75
2023-03-27T20:48:22.181Z,61.77
2023-03-27T20:50:55.465Z,61.84
2023-03-27T20:53:26.300Z,61.88
2023-03-27T20:56:00.031Z,62.15
2023-03-27T20:58:28.114Z,62.33
2023-03-27T21:00:56.198Z,62.21
2023-03-27T21:03:23.309Z,61.92
2023-03-27T21:05:50.620Z,62.21
2023-03-27T21:08:17.491Z,62.07
2023-03-27T21:10:52.474Z,62.72
2023-03-27T21:13:19.411Z,62.60
2023-03-27T21:15:46.281Z,62.88
2023-03-27T21:18:13.171Z,62.58
2023-03-27T21:20:39.959Z,62.89
2023-03-27T21:23:06.750Z,62.66
2023-03-27T21:25:34.601Z,63.03
2023-03-27T21:28:06.004Z,63.31
2023-03-27T21:30:46.801Z,62.72
2023-03-27T21:33:16.185Z,63.25
2023-03-27T21:35:46.156Z,63.35
2023-03-27T21:38:14.318Z,63.33
2023-03-27T21:40:41.293Z,63.96
2023-03-27T21:43:09.099Z,63.55
2023-03-27T21:45:36.540Z,63.36
2023-03-27T21:48:03.905Z,63.94
2023-03-27T21:50:30.815Z,63.54
2023-03-27T21:52:57.713Z,64.06
2023-03-27T21:55:24.537Z,64.19
2023-03-27T21:57:52.346Z,64.00
2023-03-27T22:00:20.187Z,63.92
2023-03-27T22:02:47.161Z,64.49
2023-03-27T22:05:14.144Z,63.97
2023-03-27T22:07:41.053Z,64.37
2023-03-27T22:10:08.387Z,64.57
2023-03-27T22:12:36.389Z,64.62
2023-03-27T22:15:04.486Z,64.83
2023-03-27T22:17:31.471Z,64.46
2023-03-27T22:19:59.205Z,64.91
2023-03-27T22:22:26.194Z,65.09
2023-03-27T22:24:53.018Z,64.69
2023-03-27T22:27:19.836Z,64.87
2023-03-27T22:29:46.668Z,64.50
2023-03-27T22:32:13.490Z,64.92
2023-03-27T22:34:40.418Z,64.84
2023-03-27T22:37:07.432Z,65.37
2023-03-27T22:39:34.297Z,65.01
2023-03-27T22:42:01.346Z,65.28
2023-03-27T22:44:30.859Z,65.67
2023-03-27T22:46:58.932Z,65.32
2023-03-27T22:49:26.328Z,65.35
2023-03-27T22:51:53.139Z,65.44
2023-03-27T22:54:20.331Z,65.48
2023-03-27T22:56:47.887Z,65.55
2023-03-27T22:59:15.664Z,65.67
2023-03-27T23:01:42.628Z,65.97
2023-03-27T23:04:09.593Z,66.37
2023-03-27T23:06:36.416Z,66.08
2023-03-27T23:09:03.207Z,65.86
2023-03-27T23:11:30.532Z,65.96
2023-03-27T23:13:57.289Z,66.10
2023-03-27T23:16:24.286Z,66.25
2023-03-27T23:18:51.059Z,66.59
2023-03-27T23:21:18.271Z,66.37
2023-03-27T23:23:45.394Z,66.75
2023-03-27T23:26:12.900Z,66.84
2023-03-27T23:28:41.354Z,66.69
2023-03-27T23:31:12.484Z,66.66
2023-03-27T23:33:41.299Z,66.98
2023-03-27T23:36:11.379Z,66.93
2023-03-27T23:38:38.966Z,67.12
2023-03-27T23:41:07.144Z,67.36
2023-03-27T23:43:34.568Z,67.33
2023-03-27T23:46:01.838Z,67.28
2023-03-27T23:48:29.700Z,67.36
2023-03-27T23:50:57.240Z,67.56
2023-03-27T23:53:25.822Z,67.68
2023-03-27T23:55:53.552Z,67.93
2023-03-27T23:58:20.350Z,68.19
